Bath, South Dakota
Current Conditions -  °F | °C
As of 6:53 AM on Friday 28 Nov 2014 (Local Time) from KABR Reporting Station
Overcast Overcast  
Wind Chill:   Ceiling: 10000
Heat Index: 15°   Visibility: 10mi
Dew Point:   Wind: 7mph
Humidity: 77%   Direction: 40°NE
Pressure: 29.85"   Gusts: NA
Location:  45.47°N, 98.33°W
Report Text: KABR 281253Z AUTO 04006KT 10SM OVC100 M09/M13 A2985 RMK AO2 SLP131 T10941128 $
Loading
Personal Weather Stations






























Interactive Weather Map New forecast layout! Learn more

10-Day Weather Forecast

Advertisements
Track Severe Weather on mobile